sensor_id;sensor_type;location;lat;lon;timestamp;temperature;humidity
72814;DHT22;60945;48.516;-2.768;2022-10-22T00:02:05;13.40;94.80
72814;DHT22;60945;48.516;-2.768;2022-10-22T00:04:32;13.40;94.90
72814;DHT22;60945;48.516;-2.768;2022-10-22T00:06:58;13.40;94.80
72814;DHT22;60945;48.516;-2.768;2022-10-22T00:09:24;13.40;94.90
72814;DHT22;60945;48.516;-2.768;2022-10-22T00:11:49;13.30;94.70
72814;DHT22;60945;48.516;-2.768;2022-10-22T00:14:15;13.30;94.80
72814;DHT22;60945;48.516;-2.768;2022-10-22T00:16:41;13.30;94.70
72814;DHT22;60945;48.516;-2.768;2022-10-22T00:19:07;13.30;94.60
72814;DHT22;60945;48.516;-2.768;2022-10-22T00:21:34;13.30;94.70
72814;DHT22;60945;48.516;-2.768;2022-10-22T00:23:59;13.30;94.60
72814;DHT22;60945;48.516;-2.768;2022-10-22T00:26:25;13.20;94.80
72814;DHT22;60945;48.516;-2.768;2022-10-22T00:28:52;13.20;94.80
72814;DHT22;60945;48.516;-2.768;2022-10-22T00:31:17;13.20;94.90
72814;DHT22;60945;48.516;-2.768;2022-10-22T00:33:45;13.10;94.70
72814;DHT22;60945;48.516;-2.768;2022-10-22T00:36:12;13.10;95.40
72814;DHT22;60945;48.516;-2.768;2022-10-22T00:38:38;13.10;95.60
72814;DHT22;60945;48.516;-2.768;2022-10-22T00:41:03;13.10;95.50
72814;DHT22;60945;48.516;-2.768;2022-10-22T00:43:29;13.10;95.70
72814;DHT22;60945;48.516;-2.768;2022-10-22T00:45:55;13.10;95.80
72814;DHT22;60945;48.516;-2.768;2022-10-22T00:48:31;13.00;95.70
72814;DHT22;60945;48.516;-2.768;2022-10-22T00:51:02;13.00;95.60
72814;DHT22;60945;48.516;-2.768;2022-10-22T00:53:37;12.90;95.70
72814;DHT22;60945;48.516;-2.768;2022-10-22T00:56:04;13.00;96.00
72814;DHT22;60945;48.516;-2.768;2022-10-22T00:58:33;12.90;95.70
72814;DHT22;60945;48.516;-2.768;2022-10-22T01:01:01;13.00;96.20
72814;DHT22;60945;48.516;-2.768;2022-10-22T01:03:27;13.00;96.10
72814;DHT22;60945;48.516;-2.768;2022-10-22T01:05:56;12.90;95.90
72814;DHT22;60945;48.516;-2.768;2022-10-22T01:08:30;12.90;96.00
72814;DHT22;60945;48.516;-2.768;2022-10-22T01:11:20;13.00;96.50
72814;DHT22;60945;48.516;-2.768;2022-10-22T01:14:03;13.00;96.70
72814;DHT22;60945;48.516;-2.768;2022-10-22T01:16:53;13.00;96.30
72814;DHT22;60945;48.516;-2.768;2022-10-22T01:22:34;13.00;96.20
72814;DHT22;60945;48.516;-2.768;2022-10-22T01:31:00;13.00;96.40
72814;DHT22;60945;48.516;-2.768;2022-10-22T01:33:28;13.00;96.50
72814;DHT22;60945;48.516;-2.768;2022-10-22T01:35:55;13.00;96.50
72814;DHT22;60945;48.516;-2.768;2022-10-22T01:38:22;12.90;96.40
72814;DHT22;60945;48.516;-2.768;2022-10-22T01:40:50;12.90;96.50
72814;DHT22;60945;48.516;-2.768;2022-10-22T01:43:16;12.90;96.50
72814;DHT22;60945;48.516;-2.768;2022-10-22T01:45:55;12.90;96.50
72814;DHT22;60945;48.516;-2.768;2022-10-22T01:54:10;12.80;96.50
72814;DHT22;60945;48.516;-2.768;2022-10-22T02:02:40;12.70;96.30
72814;DHT22;60945;48.516;-2.768;2022-10-22T02:07:39;12.70;96.50
72814;DHT22;60945;48.516;-2.768;2022-10-22T02:10:07;12.70;96.70
72814;DHT22;60945;48.516;-2.768;2022-10-22T02:12:34;12.70;96.80
72814;DHT22;60945;48.516;-2.768;2022-10-22T02:15:01;12.70;96.90
72814;DHT22;60945;48.516;-2.768;2022-10-22T02:17:30;12.70;96.80
72814;DHT22;60945;48.516;-2.768;2022-10-22T02:20:05;12.70;97.00
72814;DHT22;60945;48.516;-2.768;2022-10-22T02:22:32;12.70;97.00
72814;DHT22;60945;48.516;-2.768;2022-10-22T02:24:59;12.80;97.40
72814;DHT22;60945;48.516;-2.768;2022-10-22T02:35:19;12.90;96.30
72814;DHT22;60945;48.516;-2.768;2022-10-22T02:37:46;12.80;96.30
72814;DHT22;60945;48.516;-2.768;2022-10-22T02:40:12;12.80;96.20
72814;DHT22;60945;48.516;-2.768;2022-10-22T02:42:38;12.80;96.30
72814;DHT22;60945;48.516;-2.768;2022-10-22T02:45:05;12.70;96.10
72814;DHT22;60945;48.516;-2.768;2022-10-22T02:47:31;12.70;96.40
72814;DHT22;60945;48.516;-2.768;2022-10-22T02:49:59;12.70;96.30
72814;DHT22;60945;48.516;-2.768;2022-10-22T02:52:25;12.70;96.20
72814;DHT22;60945;48.516;-2.768;2022-10-22T02:54:50;12.70;96.00
72814;DHT22;60945;48.516;-2.768;2022-10-22T02:57:16;12.70;96.00
72814;DHT22;60945;48.516;-2.768;2022-10-22T02:59:42;12.60;96.00
72814;DHT22;60945;48.516;-2.768;2022-10-22T03:02:07;12.70;96.20
72814;DHT22;60945;48.516;-2.768;2022-10-22T03:04:33;12.70;96.10
72814;DHT22;60945;48.516;-2.768;2022-10-22T03:06:59;12.80;96.10
72814;DHT22;60945;48.516;-2.768;2022-10-22T03:09:24;12.90;95.90
72814;DHT22;60945;48.516;-2.768;2022-10-22T03:11:50;12.90;95.40
72814;DHT22;60945;48.516;-2.768;2022-10-22T03:14:16;12.90;95.60
72814;DHT22;60945;48.516;-2.768;2022-10-22T03:16:42;12.90;95.70
72814;DHT22;60945;48.516;-2.768;2022-10-22T03:19:07;12.90;95.90
72814;DHT22;60945;48.516;-2.768;2022-10-22T03:21:43;13.00;95.90
72814;DHT22;60945;48.516;-2.768;2022-10-22T03:24:33;13.10;95.70
72814;DHT22;60945;48.516;-2.768;2022-10-22T03:26:59;13.20;95.40
72814;DHT22;60945;48.516;-2.768;2022-10-22T03:29:25;13.20;94.80
72814;DHT22;60945;48.516;-2.768;2022-10-22T03:31:52;13.20;94.80
72814;DHT22;60945;48.516;-2.768;2022-10-22T03:34:18;13.10;94.80
72814;DHT22;60945;48.516;-2.768;2022-10-22T03:36:44;13.00;94.80
72814;DHT22;60945;48.516;-2.768;2022-10-22T03:39:12;12.90;95.00
72814;DHT22;60945;48.516;-2.768;2022-10-22T03:41:39;12.80;95.60
72814;DHT22;60945;48.516;-2.768;2022-10-22T03:44:05;12.70;96.10
72814;DHT22;60945;48.516;-2.768;2022-10-22T03:46:31;12.70;96.20
72814;DHT22;60945;48.516;-2.768;2022-10-22T03:48:57;12.70;96.00
72814;DHT22;60945;48.516;-2.768;2022-10-22T03:51:26;12.70;96.20
72814;DHT22;60945;48.516;-2.768;2022-10-22T03:53:52;12.70;96.30
72814;DHT22;60945;48.516;-2.768;2022-10-22T03:56:18;12.60;96.40
72814;DHT22;60945;48.516;-2.768;2022-10-22T03:58:44;12.60;96.60
72814;DHT22;60945;48.516;-2.768;2022-10-22T04:01:11;12.60;96.80
72814;DHT22;60945;48.516;-2.768;2022-10-22T04:03:38;12.60;96.90
72814;DHT22;60945;48.516;-2.768;2022-10-22T04:06:09;12.70;97.30
72814;DHT22;60945;48.516;-2.768;2022-10-22T04:08:35;12.70;96.90
72814;DHT22;60945;48.516;-2.768;2022-10-22T04:11:01;12.70;96.90
72814;DHT22;60945;48.516;-2.768;2022-10-22T04:13:27;12.70;96.90
72814;DHT22;60945;48.516;-2.768;2022-10-22T04:15:53;12.60;96.80
72814;DHT22;60945;48.516;-2.768;2022-10-22T04:18:20;12.60;96.80
72814;DHT22;60945;48.516;-2.768;2022-10-22T04:20:46;12.50;96.70
72814;DHT22;60945;48.516;-2.768;2022-10-22T04:23:12;12.50;96.90
72814;DHT22;60945;48.516;-2.768;2022-10-22T04:25:38;12.50;96.90
72814;DHT22;60945;48.516;-2.768;2022-10-22T04:28:08;12.50;96.90
72814;DHT22;60945;48.516;-2.768;2022-10-22T04:30:35;12.40;96.70
72814;DHT22;60945;48.516;-2.768;2022-10-22T04:33:01;12.40;96.70
72814;DHT22;60945;48.516;-2.768;2022-10-22T04:35:27;12.40;96.80
72814;DHT22;60945;48.516;-2.768;2022-10-22T04:37:53;12.40;97.00
72814;DHT22;60945;48.516;-2.768;2022-10-22T04:40:19;12.40;97.10
72814;DHT22;60945;48.516;-2.768;2022-10-22T04:42:44;12.40;96.90
72814;DHT22;60945;48.516;-2.768;2022-10-22T04:45:10;12.40;96.90
72814;DHT22;60945;48.516;-2.768;2022-10-22T04:47:36;12.30;97.00
72814;DHT22;60945;48.516;-2.768;2022-10-22T04:50:02;12.30;97.00
72814;DHT22;60945;48.516;-2.768;2022-10-22T04:52:30;12.40;97.40
72814;DHT22;60945;48.516;-2.768;2022-10-22T04:54:56;12.40;97.40
72814;DHT22;60945;48.516;-2.768;2022-10-22T04:57:22;12.40;97.40
72814;DHT22;60945;48.516;-2.768;2022-10-22T04:59:47;12.40;97.60
72814;DHT22;60945;48.516;-2.768;2022-10-22T05:02:13;12.40;97.50
72814;DHT22;60945;48.516;-2.768;2022-10-22T05:04:38;12.40;97.70
72814;DHT22;60945;48.516;-2.768;2022-10-22T05:07:04;12.40;98.00
72814;DHT22;60945;48.516;-2.768;2022-10-22T05:09:30;12.40;98.00
72814;DHT22;60945;48.516;-2.768;2022-10-22T05:11:55;12.50;98.20
72814;DHT22;60945;48.516;-2.768;2022-10-22T05:14:23;12.60;98.40
72814;DHT22;60945;48.516;-2.768;2022-10-22T05:16:49;12.60;98.70
72814;DHT22;60945;48.516;-2.768;2022-10-22T05:19:21;12.70;98.90
72814;DHT22;60945;48.516;-2.768;2022-10-22T05:21:49;12.70;98.70
72814;DHT22;60945;48.516;-2.768;2022-10-22T05:24:15;12.70;98.40
72814;DHT22;60945;48.516;-2.768;2022-10-22T05:26:41;12.70;98.30
72814;DHT22;60945;48.516;-2.768;2022-10-22T05:29:06;12.70;98.40
72814;DHT22;60945;48.516;-2.768;2022-10-22T05:31:32;12.70;98.20
72814;DHT22;60945;48.516;-2.768;2022-10-22T05:33:58;12.60;98.20
72814;DHT22;60945;48.516;-2.768;2022-10-22T05:36:24;12.60;98.10
72814;DHT22;60945;48.516;-2.768;2022-10-22T05:38:50;12.60;98.00
72814;DHT22;60945;48.516;-2.768;2022-10-22T05:41:18;12.60;97.90
72814;DHT22;60945;48.516;-2.768;2022-10-22T05:43:44;12.60;97.90
72814;DHT22;60945;48.516;-2.768;2022-10-22T05:46:20;12.60;97.90
72814;DHT22;60945;48.516;-2.768;2022-10-22T05:48:51;12.60;98.10
72814;DHT22;60945;48.516;-2.768;2022-10-22T05:51:17;12.50;98.10
72814;DHT22;60945;48.516;-2.768;2022-10-22T05:53:43;12.60;98.60
72814;DHT22;60945;48.516;-2.768;2022-10-22T05:56:14;12.60;98.30
72814;DHT22;60945;48.516;-2.768;2022-10-22T05:58:41;12.60;98.30
72814;DHT22;60945;48.516;-2.768;2022-10-22T06:01:12;12.60;98.10
72814;DHT22;60945;48.516;-2.768;2022-10-22T06:03:38;12.60;98.10
72814;DHT22;60945;48.516;-2.768;2022-10-22T06:06:12;12.60;98.10
72814;DHT22;60945;48.516;-2.768;2022-10-22T06:08:42;12.60;98.40
72814;DHT22;60945;48.516;-2.768;2022-10-22T06:11:08;12.50;98.40
72814;DHT22;60945;48.516;-2.768;2022-10-22T06:13:33;12.50;98.60
72814;DHT22;60945;48.516;-2.768;2022-10-22T06:15:59;12.50;98.70
72814;DHT22;60945;48.516;-2.768;2022-10-22T06:18:25;12.50;98.60
72814;DHT22;60945;48.516;-2.768;2022-10-22T06:20:50;12.50;98.50
72814;DHT22;60945;48.516;-2.768;2022-10-22T06:23:16;12.50;98.70
72814;DHT22;60945;48.516;-2.768;2022-10-22T06:25:41;12.40;98.60
72814;DHT22;60945;48.516;-2.768;2022-10-22T06:28:08;12.50;98.70
72814;DHT22;60945;48.516;-2.768;2022-10-22T06:30:36;12.60;99.00
72814;DHT22;60945;48.516;-2.768;2022-10-22T06:33:02;12.60;99.10
72814;DHT22;60945;48.516;-2.768;2022-10-22T06:35:28;12.60;99.20
72814;DHT22;60945;48.516;-2.768;2022-10-22T06:37:53;12.70;99.30
72814;DHT22;60945;48.516;-2.768;2022-10-22T06:40:19;12.70;99.10
72814;DHT22;60945;48.516;-2.768;2022-10-22T06:42:45;12.80;99.10
72814;DHT22;60945;48.516;-2.768;2022-10-22T06:45:10;12.80;99.00
72814;DHT22;60945;48.516;-2.768;2022-10-22T06:47:36;12.80;98.80
72814;DHT22;60945;48.516;-2.768;2022-10-22T06:50:02;12.90;98.40
72814;DHT22;60945;48.516;-2.768;2022-10-22T06:52:27;12.90;98.50
72814;DHT22;60945;48.516;-2.768;2022-10-22T06:54:53;13.00;98.30
72814;DHT22;60945;48.516;-2.768;2022-10-22T06:57:18;13.00;98.30
72814;DHT22;60945;48.516;-2.768;2022-10-22T06:59:45;13.00;98.20
72814;DHT22;60945;48.516;-2.768;2022-10-22T07:02:10;13.10;98.30
72814;DHT22;60945;48.516;-2.768;2022-10-22T07:04:36;13.20;98.10
72814;DHT22;60945;48.516;-2.768;2022-10-22T07:07:02;13.20;98.00
72814;DHT22;60945;48.516;-2.768;2022-10-22T07:09:27;13.30;98.00
72814;DHT22;60945;48.516;-2.768;2022-10-22T07:11:53;13.30;97.90
72814;DHT22;60945;48.516;-2.768;2022-10-22T07:14:19;13.40;97.60
72814;DHT22;60945;48.516;-2.768;2022-10-22T07:16:44;13.40;97.50
72814;DHT22;60945;48.516;-2.768;2022-10-22T07:19:11;13.50;97.40
72814;DHT22;60945;48.516;-2.768;2022-10-22T07:21:37;13.60;97.30
72814;DHT22;60945;48.516;-2.768;2022-10-22T07:24:03;13.60;97.00
72814;DHT22;60945;48.516;-2.768;2022-10-22T07:26:29;13.70;96.80
72814;DHT22;60945;48.516;-2.768;2022-10-22T07:28:57;13.70;96.80
72814;DHT22;60945;48.516;-2.768;2022-10-22T07:31:23;13.80;96.70
72814;DHT22;60945;48.516;-2.768;2022-10-22T07:33:49;14.00;96.50
72814;DHT22;60945;48.516;-2.768;2022-10-22T07:36:15;14.20;96.40
72814;DHT22;60945;48.516;-2.768;2022-10-22T07:38:46;14.50;96.30
72814;DHT22;60945;48.516;-2.768;2022-10-22T07:41:15;14.50;95.50
72814;DHT22;60945;48.516;-2.768;2022-10-22T07:43:41;14.70;95.40
72814;DHT22;60945;48.516;-2.768;2022-10-22T07:46:07;15.00;95.70
72814;DHT22;60945;48.516;-2.768;2022-10-22T07:48:34;15.30;94.80
72814;DHT22;60945;48.516;-2.768;2022-10-22T07:51:00;15.50;93.10
72814;DHT22;60945;48.516;-2.768;2022-10-22T07:53:26;15.50;92.40
72814;DHT22;60945;48.516;-2.768;2022-10-22T07:55:52;15.40;91.80
72814;DHT22;60945;48.516;-2.768;2022-10-22T07:58:20;15.20;92.00
72814;DHT22;60945;48.516;-2.768;2022-10-22T08:00:46;15.10;92.60
72814;DHT22;60945;48.516;-2.768;2022-10-22T08:03:13;15.10;92.80
72814;DHT22;60945;48.516;-2.768;2022-10-22T08:05:40;15.10;92.70
72814;DHT22;60945;48.516;-2.768;2022-10-22T08:08:08;15.20;92.70
72814;DHT22;60945;48.516;-2.768;2022-10-22T08:10:34;15.50;92.50
72814;DHT22;60945;48.516;-2.768;2022-10-22T08:13:00;15.70;91.70
72814;DHT22;60945;48.516;-2.768;2022-10-22T08:15:26;15.90;91.20
72814;DHT22;60945;48.516;-2.768;2022-10-22T08:17:52;16.20;89.10
72814;DHT22;60945;48.516;-2.768;2022-10-22T08:20:17;16.30;87.60
72814;DHT22;60945;48.516;-2.768;2022-10-22T08:22:43;16.30;87.30
72814;DHT22;60945;48.516;-2.768;2022-10-22T08:25:09;16.60;86.10
72814;DHT22;60945;48.516;-2.768;2022-10-22T08:27:35;17.00;84.40
72814;DHT22;60945;48.516;-2.768;2022-10-22T08:30:01;17.10;83.50
72814;DHT22;60945;48.516;-2.768;2022-10-22T08:32:26;17.30;83.10
72814;DHT22;60945;48.516;-2.768;2022-10-22T08:34:52;17.50;82.00
72814;DHT22;60945;48.516;-2.768;2022-10-22T08:37:18;17.80;81.00
72814;DHT22;60945;48.516;-2.768;2022-10-22T08:39:44;18.00;79.40
72814;DHT22;60945;48.516;-2.768;2022-10-22T08:45:07;18.20;78.30
72814;DHT22;60945;48.516;-2.768;2022-10-22T08:50:50;17.30;81.10
72814;DHT22;60945;48.516;-2.768;2022-10-22T08:53:24;17.50;80.70
72814;DHT22;60945;48.516;-2.768;2022-10-22T08:55:52;17.70;80.00
72814;DHT22;60945;48.516;-2.768;2022-10-22T08:58:27;18.10;77.80
72814;DHT22;60945;48.516;-2.768;2022-10-22T09:00:59;17.90;79.30
72814;DHT22;60945;48.516;-2.768;2022-10-22T09:03:35;18.20;77.20
72814;DHT22;60945;48.516;-2.768;2022-10-22T09:06:25;18.20;77.40
72814;DHT22;60945;48.516;-2.768;2022-10-22T09:08:52;18.10;77.30
72814;DHT22;60945;48.516;-2.768;2022-10-22T09:11:23;17.60;79.60
72814;DHT22;60945;48.516;-2.768;2022-10-22T09:13:50;17.40;80.40
72814;DHT22;60945;48.516;-2.768;2022-10-22T09:19:20;17.20;81.90
72814;DHT22;60945;48.516;-2.768;2022-10-22T09:22:14;17.50;79.80
72814;DHT22;60945;48.516;-2.768;2022-10-22T09:24:47;17.50;80.00
72814;DHT22;60945;48.516;-2.768;2022-10-22T09:27:24;17.40;80.30
72814;DHT22;60945;48.516;-2.768;2022-10-22T09:29:50;17.40;79.80
72814;DHT22;60945;48.516;-2.768;2022-10-22T09:32:17;17.50;79.10
72814;DHT22;60945;48.516;-2.768;2022-10-22T09:34:44;17.50;79.80
72814;DHT22;60945;48.516;-2.768;2022-10-22T09:37:10;17.60;78.70
72814;DHT22;60945;48.516;-2.768;2022-10-22T09:39:39;17.60;78.60
72814;DHT22;60945;48.516;-2.768;2022-10-22T09:42:06;17.40;79.60
72814;DHT22;60945;48.516;-2.768;2022-10-22T09:44:34;17.50;79.00
72814;DHT22;60945;48.516;-2.768;2022-10-22T09:47:04;17.70;78.40
72814;DHT22;60945;48.516;-2.768;2022-10-22T09:49:34;17.70;78.70
72814;DHT22;60945;48.516;-2.768;2022-10-22T09:52:00;17.70;78.30
72814;DHT22;60945;48.516;-2.768;2022-10-22T09:57:21;17.70;78.70
72814;DHT22;60945;48.516;-2.768;2022-10-22T09:59:50;17.70;79.00
72814;DHT22;60945;48.516;-2.768;2022-10-22T10:02:24;17.90;78.10
72814;DHT22;60945;48.516;-2.768;2022-10-22T10:04:54;18.10;77.50
72814;DHT22;60945;48.516;-2.768;2022-10-22T10:07:23;18.20;76.30
72814;DHT22;60945;48.516;-2.768;2022-10-22T10:09:50;18.00;77.80
72814;DHT22;60945;48.516;-2.768;2022-10-22T10:20:50;18.60;75.20
72814;DHT22;60945;48.516;-2.768;2022-10-22T10:23:36;18.70;75.00
72814;DHT22;60945;48.516;-2.768;2022-10-22T10:26:18;18.80;74.50
72814;DHT22;60945;48.516;-2.768;2022-10-22T10:31:48;18.80;74.60
72814;DHT22;60945;48.516;-2.768;2022-10-22T10:37:26;18.40;76.10
72814;DHT22;60945;48.516;-2.768;2022-10-22T10:48:23;18.20;76.50
72814;DHT22;60945;48.516;-2.768;2022-10-22T10:50:54;17.90;78.00
72814;DHT22;60945;48.516;-2.768;2022-10-22T10:54:03;17.60;78.90
72814;DHT22;60945;48.516;-2.768;2022-10-22T10:56:39;17.80;78.30
72814;DHT22;60945;48.516;-2.768;2022-10-22T11:02:15;17.90;77.30
72814;DHT22;60945;48.516;-2.768;2022-10-22T11:07:54;17.80;77.90
72814;DHT22;60945;48.516;-2.768;2022-10-22T11:10:39;17.60;78.80
72814;DHT22;60945;48.516;-2.768;2022-10-22T11:16:22;17.60;79.30
72814;DHT22;60945;48.516;-2.768;2022-10-22T11:21:55;17.40;80.70
72814;DHT22;60945;48.516;-2.768;2022-10-22T11:30:04;17.70;80.00
72814;DHT22;60945;48.516;-2.768;2022-10-22T11:32:33;17.90;79.40
72814;DHT22;60945;48.516;-2.768;2022-10-22T11:35:02;18.20;78.60
72814;DHT22;60945;48.516;-2.768;2022-10-22T11:37:31;18.50;76.70
72814;DHT22;60945;48.516;-2.768;2022-10-22T11:40:20;18.90;75.60
72814;DHT22;60945;48.516;-2.768;2022-10-22T11:42:53;19.00;75.30
72814;DHT22;60945;48.516;-2.768;2022-10-22T11:50:46;19.40;73.70
72814;DHT22;60945;48.516;-2.768;2022-10-22T12:06:05;19.70;72.10
72814;DHT22;60945;48.516;-2.768;2022-10-22T12:16:51;20.10;68.80
72814;DHT22;60945;48.516;-2.768;2022-10-22T12:19:38;20.40;67.80
72814;DHT22;60945;48.516;-2.768;2022-10-22T12:22:20;20.60;68.60
72814;DHT22;60945;48.516;-2.768;2022-10-22T12:24:49;20.30;67.70
72814;DHT22;60945;48.516;-2.768;2022-10-22T12:27:26;20.00;68.50
72814;DHT22;60945;48.516;-2.768;2022-10-22T12:29:59;19.80;69.90
72814;DHT22;60945;48.516;-2.768;2022-10-22T12:32:38;20.00;68.80
72814;DHT22;60945;48.516;-2.768;2022-10-22T12:35:15;20.20;68.00
72814;DHT22;60945;48.516;-2.768;2022-10-22T12:37:42;20.20;68.20
72814;DHT22;60945;48.516;-2.768;2022-10-22T12:40:23;20.60;66.70
72814;DHT22;60945;48.516;-2.768;2022-10-22T12:43:01;20.70;65.80
72814;DHT22;60945;48.516;-2.768;2022-10-22T12:45:32;20.20;66.40
72814;DHT22;60945;48.516;-2.768;2022-10-22T12:48:01;20.00;67.50
72814;DHT22;60945;48.516;-2.768;2022-10-22T12:50:38;20.40;66.70
72814;DHT22;60945;48.516;-2.768;2022-10-22T12:53:10;20.40;66.00
72814;DHT22;60945;48.516;-2.768;2022-10-22T12:55:38;20.60;65.30
72814;DHT22;60945;48.516;-2.768;2022-10-22T12:58:05;20.70;64.70
72814;DHT22;60945;48.516;-2.768;2022-10-22T13:00:32;20.70;65.10
72814;DHT22;60945;48.516;-2.768;2022-10-22T13:03:02;20.50;65.50
72814;DHT22;60945;48.516;-2.768;2022-10-22T13:05:33;20.30;66.60
72814;DHT22;60945;48.516;-2.768;2022-10-22T13:08:06;20.10;67.30
72814;DHT22;60945;48.516;-2.768;2022-10-22T13:10:36;19.90;68.90
72814;DHT22;60945;48.516;-2.768;2022-10-22T13:13:05;19.70;69.70
72814;DHT22;60945;48.516;-2.768;2022-10-22T13:15:37;19.30;71.20
72814;DHT22;60945;48.516;-2.768;2022-10-22T13:20:32;19.10;70.40
72814;DHT22;60945;48.516;-2.768;2022-10-22T13:23:03;19.00;70.40
72814;DHT22;60945;48.516;-2.768;2022-10-22T13:25:35;18.90;70.50
72814;DHT22;60945;48.516;-2.768;2022-10-22T13:28:23;19.00;70.50
72814;DHT22;60945;48.516;-2.768;2022-10-22T13:30:56;19.00;70.80
72814;DHT22;60945;48.516;-2.768;2022-10-22T13:35:54;19.00;71.10
72814;DHT22;60945;48.516;-2.768;2022-10-22T13:38:22;19.00;71.10
72814;DHT22;60945;48.516;-2.768;2022-10-22T13:40:48;18.90;71.40
72814;DHT22;60945;48.516;-2.768;2022-10-22T13:43:15;18.80;71.90
72814;DHT22;60945;48.516;-2.768;2022-10-22T13:45:40;18.90;71.90
72814;DHT22;60945;48.516;-2.768;2022-10-22T13:48:12;19.00;71.80
72814;DHT22;60945;48.516;-2.768;2022-10-22T13:50:39;19.00;72.10
72814;DHT22;60945;48.516;-2.768;2022-10-22T13:53:04;19.00;72.00
72814;DHT22;60945;48.516;-2.768;2022-10-22T13:55:32;18.90;71.90
72814;DHT22;60945;48.516;-2.768;2022-10-22T13:58:12;18.80;72.10
72814;DHT22;60945;48.516;-2.768;2022-10-22T14:00:42;18.90;71.70
72814;DHT22;60945;48.516;-2.768;2022-10-22T14:03:18;18.80;70.90
72814;DHT22;60945;48.516;-2.768;2022-10-22T14:05:48;18.70;71.10
72814;DHT22;60945;48.516;-2.768;2022-10-22T14:08:19;18.70;70.50
72814;DHT22;60945;48.516;-2.768;2022-10-22T14:10:45;18.80;70.40
72814;DHT22;60945;48.516;-2.768;2022-10-22T14:13:15;18.70;70.20
72814;DHT22;60945;48.516;-2.768;2022-10-22T14:15:43;18.80;70.80
72814;DHT22;60945;48.516;-2.768;2022-10-22T14:18:17;18.80;70.40
72814;DHT22;60945;48.516;-2.768;2022-10-22T14:20:51;18.80;70.50
72814;DHT22;60945;48.516;-2.768;2022-10-22T14:23:20;18.70;70.70
72814;DHT22;60945;48.516;-2.768;2022-10-22T14:25:48;18.70;71.10
72814;DHT22;60945;48.516;-2.768;2022-10-22T14:28:17;18.60;71.50
72814;DHT22;60945;48.516;-2.768;2022-10-22T14:30:43;18.60;71.80
72814;DHT22;60945;48.516;-2.768;2022-10-22T14:33:30;18.60;72.10
72814;DHT22;60945;48.516;-2.768;2022-10-22T14:35:56;18.60;72.50
72814;DHT22;60945;48.516;-2.768;2022-10-22T14:38:22;18.60;72.40
72814;DHT22;60945;48.516;-2.768;2022-10-22T14:40:48;18.50;72.60
72814;DHT22;60945;48.516;-2.768;2022-10-22T14:43:20;18.50;72.90
72814;DHT22;60945;48.516;-2.768;2022-10-22T14:45:47;18.50;72.60
72814;DHT22;60945;48.516;-2.768;2022-10-22T14:48:12;18.50;73.00
72814;DHT22;60945;48.516;-2.768;2022-10-22T14:50:40;18.40;72.80
72814;DHT22;60945;48.516;-2.768;2022-10-22T14:53:06;18.40;72.80
72814;DHT22;60945;48.516;-2.768;2022-10-22T14:55:32;18.30;73.10
72814;DHT22;60945;48.516;-2.768;2022-10-22T14:57:57;18.30;73.40
72814;DHT22;60945;48.516;-2.768;2022-10-22T15:00:23;18.30;73.60
72814;DHT22;60945;48.516;-2.768;2022-10-22T15:02:48;18.30;73.80
72814;DHT22;60945;48.516;-2.768;2022-10-22T15:05:14;18.30;74.00
72814;DHT22;60945;48.516;-2.768;2022-10-22T15:07:42;18.20;73.90
72814;DHT22;60945;48.516;-2.768;2022-10-22T15:10:08;18.30;74.10
72814;DHT22;60945;48.516;-2.768;2022-10-22T15:12:34;18.30;73.90
72814;DHT22;60945;48.516;-2.768;2022-10-22T15:15:02;18.30;73.90
72814;DHT22;60945;48.516;-2.768;2022-10-22T15:17:28;18.20;74.30
72814;DHT22;60945;48.516;-2.768;2022-10-22T15:19:53;18.20;74.30
72814;DHT22;60945;48.516;-2.768;2022-10-22T15:22:21;18.20;74.10
72814;DHT22;60945;48.516;-2.768;2022-10-22T15:24:47;18.20;74.60
72814;DHT22;60945;48.516;-2.768;2022-10-22T15:27:14;18.20;74.30
72814;DHT22;60945;48.516;-2.768;2022-10-22T15:29:41;18.20;74.10
72814;DHT22;60945;48.516;-2.768;2022-10-22T15:32:07;18.20;73.90
72814;DHT22;60945;48.516;-2.768;2022-10-22T15:34:38;18.10;73.90
72814;DHT22;60945;48.516;-2.768;2022-10-22T15:37:06;18.10;74.30
72814;DHT22;60945;48.516;-2.768;2022-10-22T15:39:32;18.00;74.50
72814;DHT22;60945;48.516;-2.768;2022-10-22T15:41:58;18.00;74.60
72814;DHT22;60945;48.516;-2.768;2022-10-22T15:44:27;18.00;74.70
72814;DHT22;60945;48.516;-2.768;2022-10-22T15:46:53;18.00;74.70
72814;DHT22;60945;48.516;-2.768;2022-10-22T15:49:20;18.00;74.90
72814;DHT22;60945;48.516;-2.768;2022-10-22T15:51:46;17.90;75.10
72814;DHT22;60945;48.516;-2.768;2022-10-22T15:54:17;17.90;75.30
72814;DHT22;60945;48.516;-2.768;2022-10-22T15:56:43;17.90;75.10
72814;DHT22;60945;48.516;-2.768;2022-10-22T15:59:11;17.90;75.40
72814;DHT22;60945;48.516;-2.768;2022-10-22T16:01:37;17.90;75.50
72814;DHT22;60945;48.516;-2.768;2022-10-22T16:04:04;17.90;76.00
72814;DHT22;60945;48.516;-2.768;2022-10-22T16:06:32;17.80;75.90
72814;DHT22;60945;48.516;-2.768;2022-10-22T16:09:03;17.80;76.20
72814;DHT22;60945;48.516;-2.768;2022-10-22T16:11:28;17.80;76.60
72814;DHT22;60945;48.516;-2.768;2022-10-22T16:13:55;17.80;76.70
72814;DHT22;60945;48.516;-2.768;2022-10-22T16:16:26;17.70;76.90
72814;DHT22;60945;48.516;-2.768;2022-10-22T16:18:53;17.70;77.40
72814;DHT22;60945;48.516;-2.768;2022-10-22T16:21:19;17.70;77.60
72814;DHT22;60945;48.516;-2.768;2022-10-22T16:23:45;17.60;78.00
72814;DHT22;60945;48.516;-2.768;2022-10-22T16:26:11;17.60;78.30
72814;DHT22;60945;48.516;-2.768;2022-10-22T16:28:38;17.60;78.80
72814;DHT22;60945;48.516;-2.768;2022-10-22T16:31:06;17.50;79.10
72814;DHT22;60945;48.516;-2.768;2022-10-22T16:33:34;17.50;79.30
72814;DHT22;60945;48.516;-2.768;2022-10-22T16:36:00;17.50;79.70
72814;DHT22;60945;48.516;-2.768;2022-10-22T16:38:26;17.50;79.90
72814;DHT22;60945;48.516;-2.768;2022-10-22T16:40:51;17.40;80.30
72814;DHT22;60945;48.516;-2.768;2022-10-22T16:43:17;17.40;80.70
72814;DHT22;60945;48.516;-2.768;2022-10-22T16:45:47;17.30;81.10
72814;DHT22;60945;48.516;-2.768;2022-10-22T16:48:14;17.30;81.30
72814;DHT22;60945;48.516;-2.768;2022-10-22T16:50:40;17.30;81.80
72814;DHT22;60945;48.516;-2.768;2022-10-22T16:53:05;17.20;82.00
72814;DHT22;60945;48.516;-2.768;2022-10-22T16:55:35;17.20;82.30
72814;DHT22;60945;48.516;-2.768;2022-10-22T16:58:01;17.20;82.50
72814;DHT22;60945;48.516;-2.768;2022-10-22T17:00:26;17.20;82.70
72814;DHT22;60945;48.516;-2.768;2022-10-22T17:02:52;17.10;82.80
72814;DHT22;60945;48.516;-2.768;2022-10-22T17:05:18;17.10;82.90
72814;DHT22;60945;48.516;-2.768;2022-10-22T17:07:44;17.10;83.00
72814;DHT22;60945;48.516;-2.768;2022-10-22T17:10:10;17.10;83.10
72814;DHT22;60945;48.516;-2.768;2022-10-22T17:12:35;17.10;83.30
72814;DHT22;60945;48.516;-2.768;2022-10-22T17:15:03;17.00;83.50
72814;DHT22;60945;48.516;-2.768;2022-10-22T17:17:29;17.00;83.50
72814;DHT22;60945;48.516;-2.768;2022-10-22T17:19:57;17.00;83.50